sensor_id;sensor_type;location;lat;lon;timestamp;pressure;altitude;pressure_sealevel;temperature;humidity
22662;BME280;11497;52.222;21.246;2023-01-28T00:01:48;101147.44;;;0.61;98.41
22662;BME280;11497;52.222;21.246;2023-01-28T00:04:16;101165.34;;;0.55;98.75
22662;BME280;11497;52.222;21.246;2023-01-28T00:06:45;101156.06;;;0.63;98.69
22662;BME280;11497;52.222;21.246;2023-01-28T00:09:13;101156.19;;;0.69;98.98
22662;BME280;11497;52.222;21.246;2023-01-28T00:11:40;101157.88;;;0.67;98.88
22662;BME280;11497;52.222;21.246;2023-01-28T00:14:10;101161.16;;;0.60;98.71
22662;BME280;11497;52.222;21.246;2023-01-28T00:16:39;101154.50;;;0.71;99.00
22662;BME280;11497;52.222;21.246;2023-01-28T00:19:06;101158.97;;;0.80;99.06
22662;BME280;11497;52.222;21.246;2023-01-28T00:21:35;101157.38;;;0.88;98.82
22662;BME280;11497;52.222;21.246;2023-01-28T00:24:03;101164.16;;;0.81;98.42
22662;BME280;11497;52.222;21.246;2023-01-28T00:26:33;101162.47;;;0.83;98.59
22662;BME280;11497;52.222;21.246;2023-01-28T00:29:02;101157.50;;;0.94;98.83
22662;BME280;11497;52.222;21.246;2023-01-28T00:31:30;101157.38;;;0.86;98.54
22662;BME280;11497;52.222;21.246;2023-01-28T00:34:00;101154.03;;;0.92;98.26
22662;BME280;11497;52.222;21.246;2023-01-28T00:36:28;101158.41;;;0.97;98.03
22662;BME280;11497;52.222;21.246;2023-01-28T00:38:57;101160.22;;;1.02;98.12
22662;BME280;11497;52.222;21.246;2023-01-28T00:41:28;101155.63;;;0.84;97.47
22662;BME280;11497;52.222;21.246;2023-01-28T00:43:58;101153.94;;;0.87;97.88
22662;BME280;11497;52.222;21.246;2023-01-28T00:46:26;101157.41;;;0.89;97.61
22662;BME280;11497;52.222;21.246;2023-01-28T00:48:54;101149.84;;;0.98;97.62
22662;BME280;11497;52.222;21.246;2023-01-28T00:51:22;101154.94;;;0.95;97.56
22662;BME280;11497;52.222;21.246;2023-01-28T00:53:50;101153.22;;;0.94;97.50
22662;BME280;11497;52.222;21.246;2023-01-28T00:56:18;101150.66;;;0.96;97.61
22662;BME280;11497;52.222;21.246;2023-01-28T00:58:46;101149.84;;;0.98;97.46
22662;BME280;11497;52.222;21.246;2023-01-28T01:01:17;101154.88;;;0.92;97.36
22662;BME280;11497;52.222;21.246;2023-01-28T01:03:46;101147.81;;;0.79;97.72
22662;BME280;11497;52.222;21.246;2023-01-28T01:06:15;101150.06;;;1.11;97.71
22662;BME280;11497;52.222;21.246;2023-01-28T01:08:43;101160.16;;;0.98;97.29
22662;BME280;11497;52.222;21.246;2023-01-28T01:11:18;101160.28;;;1.05;97.44
22662;BME280;11497;52.222;21.246;2023-01-28T01:13:53;101154.81;;;0.88;97.38
22662;BME280;11497;52.222;21.246;2023-01-28T01:16:26;101160.16;;;0.98;97.66
22662;BME280;11497;52.222;21.246;2023-01-28T01:18:55;101153.97;;;0.89;97.45
22662;BME280;11497;52.222;21.246;2023-01-28T01:21:26;101156.63;;;0.93;97.79
22662;BME280;11497;52.222;21.246;2023-01-28T01:23:55;101151.56;;;0.98;97.97
22662;BME280;11497;52.222;21.246;2023-01-28T01:26:23;101155.00;;;0.98;97.74
22662;BME280;11497;52.222;21.246;2023-01-28T01:28:53;101159.34;;;1.01;97.73
22662;BME280;11497;52.222;21.246;2023-01-28T01:31:22;101152.91;;;1.26;97.35
22662;BME280;11497;52.222;21.246;2023-01-28T01:33:50;101147.34;;;1.03;97.07
22662;BME280;11497;52.222;21.246;2023-01-28T01:36:19;101141.81;;;1.30;97.37
22662;BME280;11497;52.222;21.246;2023-01-28T01:38:52;101144.91;;;1.11;96.60
22662;BME280;11497;52.222;21.246;2023-01-28T01:41:32;101144.84;;;1.08;96.84
22662;BME280;11497;52.222;21.246;2023-01-28T01:44:02;101148.34;;;1.10;97.19
22662;BME280;11497;52.222;21.246;2023-01-28T01:46:33;101145.25;;;1.32;97.32
22662;BME280;11497;52.222;21.246;2023-01-28T01:51:39;101152.63;;;1.09;96.64
22662;BME280;11497;52.222;21.246;2023-01-28T01:54:07;101150.06;;;1.11;96.69
22662;BME280;11497;52.222;21.246;2023-01-28T01:56:39;101147.47;;;1.09;96.88
22662;BME280;11497;52.222;21.246;2023-01-28T01:59:11;101155.06;;;1.02;97.19
22662;BME280;11497;52.222;21.246;2023-01-28T02:01:41;101149.53;;;1.30;97.19
22662;BME280;11497;52.222;21.246;2023-01-28T02:04:28;101153.66;;;1.19;96.86
22662;BME280;11497;52.222;21.246;2023-01-28T02:06:56;101156.97;;;1.12;97.00
22662;BME280;11497;52.222;21.246;2023-01-28T02:09:27;101155.28;;;1.14;96.83
22662;BME280;11497;52.222;21.246;2023-01-28T02:12:00;101160.38;;;1.11;97.13
22662;BME280;11497;52.222;21.246;2023-01-28T02:14:31;101156.09;;;1.11;97.35
22662;BME280;11497;52.222;21.246;2023-01-28T02:17:00;101150.22;;;1.20;97.52
22662;BME280;11497;52.222;21.246;2023-01-28T02:22:51;101158.03;;;1.23;97.52
22662;BME280;11497;52.222;21.246;2023-01-28T02:25:48;101154.56;;;1.22;97.62
22662;BME280;11497;52.222;21.246;2023-01-28T02:31:47;101148.53;;;1.20;97.45
22662;BME280;11497;52.222;21.246;2023-01-28T02:39:47;101147.44;;;1.60;97.33
22662;BME280;11497;52.222;21.246;2023-01-28T02:42:29;101152.44;;;1.51;96.22
22662;BME280;11497;52.222;21.246;2023-01-28T02:44:58;101155.81;;;1.47;96.12
22662;BME280;11497;52.222;21.246;2023-01-28T02:47:26;101152.31;;;1.44;95.99
22662;BME280;11497;52.222;21.246;2023-01-28T02:50:17;101150.66;;;1.47;95.88
22662;BME280;11497;52.222;21.246;2023-01-28T02:58:44;101158.25;;;1.38;96.74
22662;BME280;11497;52.222;21.246;2023-01-28T03:04:03;101163.97;;;1.19;97.29
22662;BME280;11497;52.222;21.246;2023-01-28T03:06:38;101160.72;;;1.29;97.36
22662;BME280;11497;52.222;21.246;2023-01-28T03:09:10;101161.03;;;1.50;96.73
22662;BME280;11497;52.222;21.246;2023-01-28T03:12:10;101153.06;;;1.37;96.70
22662;BME280;11497;52.222;21.246;2023-01-28T03:18:31;101159.41;;;1.55;96.60
22662;BME280;11497;52.222;21.246;2023-01-28T03:21:33;101164.41;;;1.46;96.61
22662;BME280;11497;52.222;21.246;2023-01-28T03:24:27;101162.53;;;1.38;96.92
22662;BME280;11497;52.222;21.246;2023-01-28T03:27:32;101159.09;;;1.37;96.66
22662;BME280;11497;52.222;21.246;2023-01-28T03:30:30;101157.31;;;1.34;96.28
22662;BME280;11497;52.222;21.246;2023-01-28T03:33:30;101151.41;;;1.40;96.57
22662;BME280;11497;52.222;21.246;2023-01-28T03:36:19;101157.41;;;1.39;96.26
22662;BME280;11497;52.222;21.246;2023-01-28T03:39:09;101160.81;;;1.38;96.28
22662;BME280;11497;52.222;21.246;2023-01-28T03:41:39;101157.28;;;1.30;96.30
22662;BME280;11497;52.222;21.246;2023-01-28T03:44:06;101160.66;;;1.26;96.84
22662;BME280;11497;52.222;21.246;2023-01-28T03:46:53;101162.81;;;1.54;96.33
22662;BME280;11497;52.222;21.246;2023-01-28T03:49:21;101160.00;;;1.41;96.07
22662;BME280;11497;52.222;21.246;2023-01-28T03:51:49;101170.47;;;1.48;95.42
22662;BME280;11497;52.222;21.246;2023-01-28T03:54:17;101165.97;;;1.37;95.44
22662;BME280;11497;52.222;21.246;2023-01-28T03:56:46;101161.56;;;1.28;95.44
22662;BME280;11497;52.222;21.246;2023-01-28T03:59:16;101159.88;;;1.33;95.56
22662;BME280;11497;52.222;21.246;2023-01-28T04:01:44;101157.47;;;1.42;95.59
22662;BME280;11497;52.222;21.246;2023-01-28T04:04:12;101153.16;;;1.43;95.57
22662;BME280;11497;52.222;21.246;2023-01-28T04:06:58;101153.94;;;1.37;95.23
22662;BME280;11497;52.222;21.246;2023-01-28T04:09:47;101155.72;;;1.41;95.25
22662;BME280;11497;52.222;21.246;2023-01-28T04:12:26;101159.19;;;1.43;95.19
22662;BME280;11497;52.222;21.246;2023-01-28T04:14:54;101162.66;;;1.45;95.41
22662;BME280;11497;52.222;21.246;2023-01-28T04:17:27;101161.56;;;1.31;95.48
22662;BME280;11497;52.222;21.246;2023-01-28T04:19:56;101158.06;;;1.26;95.63
22662;BME280;11497;52.222;21.246;2023-01-28T04:22:25;101173.53;;;1.26;95.87
22662;BME280;11497;52.222;21.246;2023-01-28T04:24:53;101164.00;;;1.20;96.02
22662;BME280;11497;52.222;21.246;2023-01-28T04:27:21;101164.97;;;1.27;96.23
22662;BME280;11497;52.222;21.246;2023-01-28T04:29:50;101162.38;;;1.27;95.88
22662;BME280;11497;52.222;21.246;2023-01-28T04:32:45;101165.94;;;1.35;95.56
22662;BME280;11497;52.222;21.246;2023-01-28T04:35:32;101159.00;;;1.31;95.40
22662;BME280;11497;52.222;21.246;2023-01-28T04:38:06;101164.59;;;1.06;95.42
22662;BME280;11497;52.222;21.246;2023-01-28T04:40:47;101162.13;;;1.12;96.22
22662;BME280;11497;52.222;21.246;2023-01-28T04:43:25;101171.78;;;1.23;96.17
22662;BME280;11497;52.222;21.246;2023-01-28T04:46:15;101168.91;;;1.07;96.29
22662;BME280;11497;52.222;21.246;2023-01-28T04:49:02;101167.34;;;1.16;96.66
22662;BME280;11497;52.222;21.246;2023-01-28T04:52:00;101166.19;;;0.99;97.04
22662;BME280;11497;52.222;21.246;2023-01-28T04:54:40;101167.22;;;1.09;96.92
22662;BME280;11497;52.222;21.246;2023-01-28T04:57:08;101172.41;;;1.10;97.19
22662;BME280;11497;52.222;21.246;2023-01-28T04:59:36;101164.06;;;1.25;96.96
22662;BME280;11497;52.222;21.246;2023-01-28T05:02:04;101175.03;;;1.13;96.59
22662;BME280;11497;52.222;21.246;2023-01-28T05:04:32;101175.19;;;1.21;96.70
22662;BME280;11497;52.222;21.246;2023-01-28T05:07:00;101165.97;;;1.37;96.57
22662;BME280;11497;52.222;21.246;2023-01-28T05:09:32;101177.81;;;1.24;96.37
22662;BME280;11497;52.222;21.246;2023-01-28T05:12:00;101176.72;;;1.11;96.28
22662;BME280;11497;52.222;21.246;2023-01-28T05:14:31;101179.22;;;1.07;96.63
22662;BME280;11497;52.222;21.246;2023-01-28T05:17:04;101182.91;;;1.21;96.73
22662;BME280;11497;52.222;21.246;2023-01-28T05:19:32;101168.16;;;1.12;96.73
22662;BME280;11497;52.222;21.246;2023-01-28T05:22:02;101180.97;;;1.09;96.86
22662;BME280;11497;52.222;21.246;2023-01-28T05:24:52;101177.66;;;1.15;96.59
22662;BME280;11497;52.222;21.246;2023-01-28T05:27:20;101172.53;;;1.18;96.48
22662;BME280;11497;52.222;21.246;2023-01-28T05:29:48;101184.75;;;1.28;96.45
22662;BME280;11497;52.222;21.246;2023-01-28T05:32:16;101182.69;;;1.09;96.41
22662;BME280;11497;52.222;21.246;2023-01-28T05:34:44;101181.34;;;1.29;96.48
22662;BME280;11497;52.222;21.246;2023-01-28T05:37:14;101190.81;;;1.33;96.28
22662;BME280;11497;52.222;21.246;2023-01-28T05:39:41;101184.75;;;1.28;95.83
22662;BME280;11497;52.222;21.246;2023-01-28T05:42:10;101197.34;;;1.11;96.23
22662;BME280;11497;52.222;21.246;2023-01-28T05:44:44;101191.53;;;1.23;96.42
22662;BME280;11497;52.222;21.246;2023-01-28T05:47:17;101188.00;;;1.18;96.31
22662;BME280;11497;52.222;21.246;2023-01-28T05:49:51;101189.75;;;1.19;96.35
22662;BME280;11497;52.222;21.246;2023-01-28T05:52:39;101193.13;;;1.15;96.42
22662;BME280;11497;52.222;21.246;2023-01-28T05:55:14;101188.63;;;1.05;96.54
22662;BME280;11497;52.222;21.246;2023-01-28T05:57:42;101189.63;;;1.13;97.16
22662;BME280;11497;52.222;21.246;2023-01-28T06:00:13;101195.03;;;1.26;96.63
22662;BME280;11497;52.222;21.246;2023-01-28T06:02:43;101189.81;;;1.22;96.57
22662;BME280;11497;52.222;21.246;2023-01-28T06:05:14;101190.75;;;1.27;96.49
22662;BME280;11497;52.222;21.246;2023-01-28T06:07:47;101194.09;;;1.21;96.30
22662;BME280;11497;52.222;21.246;2023-01-28T06:10:15;101195.03;;;1.26;96.13
22662;BME280;11497;52.222;21.246;2023-01-28T06:12:47;101205.97;;;1.13;96.01
22662;BME280;11497;52.222;21.246;2023-01-28T06:15:35;101200.78;;;1.12;96.08
22662;BME280;11497;52.222;21.246;2023-01-28T06:18:21;101208.50;;;1.10;96.38
22662;BME280;11497;52.222;21.246;2023-01-28T06:20:51;101209.34;;;1.09;96.39
22662;BME280;11497;52.222;21.246;2023-01-28T06:23:19;101205.91;;;1.10;96.84
22662;BME280;11497;52.222;21.246;2023-01-28T06:25:47;101206.53;;;0.97;96.78
22662;BME280;11497;52.222;21.246;2023-01-28T06:28:15;101212.69;;;1.05;97.30
22662;BME280;11497;52.222;21.246;2023-01-28T06:30:43;101213.78;;;1.18;97.68
22662;BME280;11497;52.222;21.246;2023-01-28T06:33:14;101211.28;;;1.21;97.52
22662;BME280;11497;52.222;21.246;2023-01-28T06:35:42;101221.69;;;1.25;97.17
22662;BME280;11497;52.222;21.246;2023-01-28T06:38:11;101218.13;;;1.20;97.35
22662;BME280;11497;52.222;21.246;2023-01-28T06:40:39;101218.28;;;1.28;97.42
22662;BME280;11497;52.222;21.246;2023-01-28T06:43:07;101218.31;;;1.31;97.55
22662;BME280;11497;52.222;21.246;2023-01-28T06:45:35;101220.81;;;1.25;97.29
22662;BME280;11497;52.222;21.246;2023-01-28T06:48:02;101216.69;;;1.36;97.35
22662;BME280;11497;52.222;21.246;2023-01-28T06:50:33;101223.50;;;1.32;97.41
22662;BME280;11497;52.222;21.246;2023-01-28T06:53:00;101220.88;;;1.31;97.30
22662;BME280;11497;52.222;21.246;2023-01-28T06:55:28;101215.59;;;1.22;97.41
22662;BME280;11497;52.222;21.246;2023-01-28T06:57:56;101223.34;;;1.23;97.89
22662;BME280;11497;52.222;21.246;2023-01-28T07:00:24;101227.47;;;1.14;98.07
22662;BME280;11497;52.222;21.246;2023-01-28T07:02:55;101225.94;;;1.23;98.09
22662;BME280;11497;52.222;21.246;2023-01-28T07:05:24;101231.19;;;1.28;98.13
22662;BME280;11497;52.222;21.246;2023-01-28T07:07:52;101235.56;;;1.35;98.04
22662;BME280;11497;52.222;21.246;2023-01-28T07:10:20;101235.50;;;1.32;98.10
22662;BME280;11497;52.222;21.246;2023-01-28T07:12:48;101233.09;;;1.41;98.17
22662;BME280;11497;52.222;21.246;2023-01-28T07:15:16;101241.69;;;1.40;98.01
22662;BME280;11497;52.222;21.246;2023-01-28T07:17:44;101238.84;;;1.25;98.11
22662;BME280;11497;52.222;21.246;2023-01-28T07:20:13;101235.38;;;1.23;98.22
22662;BME280;11497;52.222;21.246;2023-01-28T07:22:43;101240.66;;;1.30;98.84
22662;BME280;11497;52.222;21.246;2023-01-28T07:25:12;101238.25;;;1.41;98.49
22662;BME280;11497;52.222;21.246;2023-01-28T07:27:46;101238.25;;;1.41;97.86
22662;BME280;11497;52.222;21.246;2023-01-28T07:30:15;101237.22;;;1.31;98.13
22662;BME280;11497;52.222;21.246;2023-01-28T07:32:44;101243.41;;;1.41;98.10
22662;BME280;11497;52.222;21.246;2023-01-28T07:35:12;101243.25;;;1.32;98.33
22662;BME280;11497;52.222;21.246;2023-01-28T07:37:40;101245.28;;;1.50;98.24
22662;BME280;11497;52.222;21.246;2023-01-28T07:40:09;101253.75;;;1.41;97.77
22662;BME280;11497;52.222;21.246;2023-01-28T07:42:37;101250.44;;;1.48;98.23
22662;BME280;11497;52.222;21.246;2023-01-28T07:45:06;101253.09;;;1.53;97.88
22662;BME280;11497;52.222;21.246;2023-01-28T07:47:35;101255.84;;;1.63;97.77
22662;BME280;11497;52.222;21.246;2023-01-28T07:50:04;101247.88;;;1.50;97.19
22662;BME280;11497;52.222;21.246;2023-01-28T07:52:31;101240.16;;;1.51;97.14
22662;BME280;11497;52.222;21.246;2023-01-28T07:55:05;101242.53;;;1.39;97.10
22662;BME280;11497;52.222;21.246;2023-01-28T07:57:33;101242.72;;;1.50;96.90
22662;BME280;11497;52.222;21.246;2023-01-28T08:00:01;101245.31;;;1.51;96.85
22662;BME280;11497;52.222;21.246;2023-01-28T08:02:38;101242.72;;;1.50;97.18
22662;BME280;11497;52.222;21.246;2023-01-28T08:05:06;101246.31;;;1.58;97.41
22662;BME280;11497;52.222;21.246;2023-01-28T08:07:34;101249.00;;;1.65;97.43
22662;BME280;11497;52.222;21.246;2023-01-28T08:10:03;101248.16;;;1.65;97.12
22662;BME280;11497;52.222;21.246;2023-01-28T08:12:30;101251.34;;;1.52;97.06
22662;BME280;11497;52.222;21.246;2023-01-28T08:14:58;101250.31;;;1.42;97.41
22662;BME280;11497;52.222;21.246;2023-01-28T08:17:27;101246.06;;;1.44;97.60
22662;BME280;11497;52.222;21.246;2023-01-28T08:19:55;101244.22;;;1.39;97.84
22662;BME280;11497;52.222;21.246;2023-01-28T08:22:26;101246.84;;;1.40;98.09
22662;BME280;11497;52.222;21.246;2023-01-28T08:24:55;101248.84;;;1.56;98.14
22662;BME280;11497;52.222;21.246;2023-01-28T08:27:22;101253.84;;;1.47;98.01
22662;BME280;11497;52.222;21.246;2023-01-28T08:29:50;101256.75;;;1.65;97.75
22662;BME280;11497;52.222;21.246;2023-01-28T08:32:18;101250.66;;;1.60;97.49
22662;BME280;11497;52.222;21.246;2023-01-28T08:34:46;101248.28;;;1.74;96.89
22662;BME280;11497;52.222;21.246;2023-01-28T08:37:14;101246.69;;;1.82;96.80
22662;BME280;11497;52.222;21.246;2023-01-28T08:39:42;101247.56;;;1.84;96.18
22662;BME280;11497;52.222;21.246;2023-01-28T08:42:12;101255.16;;;1.72;95.78
22662;BME280;11497;52.222;21.246;2023-01-28T08:44:40;101244.13;;;1.84;95.98
22662;BME280;11497;52.222;21.246;2023-01-28T08:47:08;101250.16;;;1.84;95.57
22662;BME280;11497;52.222;21.246;2023-01-28T08:49:36;101254.19;;;1.65;95.53
22662;BME280;11497;52.222;21.246;2023-01-28T08:52:04;101256.34;;;1.94;95.92
22662;BME280;11497;52.222;21.246;2023-01-28T08:54:32;101250.97;;;1.82;95.53
22662;BME280;11497;52.222;21.246;2023-01-28T08:57:00;101246.72;;;1.85;95.52
22662;BME280;11497;52.222;21.246;2023-01-28T08:59:28;101251.13;;;1.91;95.32
22662;BME280;11497;52.222;21.246;2023-01-28T09:01:56;101257.94;;;1.86;95.17
22662;BME280;11497;52.222;21.246;2023-01-28T09:04:24;101254.44;;;1.84;95.34
22662;BME280;11497;52.222;21.246;2023-01-28T09:06:52;101259.47;;;1.75;95.61
22662;BME280;11497;52.222;21.246;2023-01-28T09:09:20;101258.75;;;1.83;95.17
22662;BME280;11497;52.222;21.246;2023-01-28T09:11:48;101255.41;;;1.90;95.55
22662;BME280;11497;52.222;21.246;2023-01-28T09:14:16;101259.47;;;1.75;95.27
22662;BME280;11497;52.222;21.246;2023-01-28T09:16:44;101263.88;;;1.82;95.89
22662;BME280;11497;52.222;21.246;2023-01-28T09:19:12;101271.50;;;1.73;95.94
22662;BME280;11497;52.222;21.246;2023-01-28T09:21:42;101270.00;;;1.88;96.30
22662;BME280;11497;52.222;21.246;2023-01-28T09:24:10;101272.84;;;2.04;95.79
22662;BME280;11497;52.222;21.246;2023-01-28T09:26:38;101275.41;;;2.02;94.81
22662;BME280;11497;52.222;21.246;2023-01-28T09:29:06;101278.88;;;2.04;94.74
22662;BME280;11497;52.222;21.246;2023-01-28T09:31:34;101278.72;;;1.95;94.78
22662;BME280;11497;52.222;21.246;2023-01-28T09:34:02;101278.78;;;1.98;94.98
22662;BME280;11497;52.222;21.246;2023-01-28T09:36:30;101277.94;;;1.99;95.28
22662;BME280;11497;52.222;21.246;2023-01-28T09:38:59;101272.03;;;2.06;95.12
22662;BME280;11497;52.222;21.246;2023-01-28T09:41:39;101280.66;;;2.08;94.52
22662;BME280;11497;52.222;21.246;2023-01-28T09:47:04;101275.56;;;2.11;94.12
22662;BME280;11497;52.222;21.246;2023-01-28T09:49:44;101272.47;;;1.81;94.00
22662;BME280;11497;52.222;21.246;2023-01-28T09:52:17;101280.34;;;1.88;94.06
22662;BME280;11497;52.222;21.246;2023-01-28T09:54:48;101267.47;;;1.90;94.77
22662;BME280;11497;52.222;21.246;2023-01-28T09:57:24;101270.16;;;1.96;94.29
22662;BME280;11497;52.222;21.246;2023-01-28T09:59:52;101274.28;;;1.86;94.51
22662;BME280;11497;52.222;21.246;2023-01-28T10:05:14;101264.09;;;1.95;93.57
22662;BME280;11497;52.222;21.246;2023-01-28T10:10:26;101261.44;;;1.91;94.51
22662;BME280;11497;52.222;21.246;2023-01-28T10:19:06;101256.69;;;2.18;94.74
22662;BME280;11497;52.222;21.246;2023-01-28T10:21:48;101253.34;;;2.25;94.53
22662;BME280;11497;52.222;21.246;2023-01-28T10:24:40;101253.09;;;2.07;94.07
22662;BME280;11497;52.222;21.246;2023-01-28T10:27:18;101258.03;;;1.92;94.53
22662;BME280;11497;52.222;21.246;2023-01-28T10:29:47;101252.25;;;2.07;94.71
22662;BME280;11497;52.222;21.246;2023-01-28T10:32:26;101250.75;;;2.24;94.52
22662;BME280;11497;52.222;21.246;2023-01-28T10:34:56;101254.09;;;2.17;93.87
22662;BME280;11497;52.222;21.246;2023-01-28T10:37:27;101258.44;;;2.19;94.24
22662;BME280;11497;52.222;21.246;2023-01-28T10:39:58;101252.97;;;1.98;93.75
22662;BME280;11497;52.222;21.246;2023-01-28T10:42:34;101240.09;;;2.01;94.17
22662;BME280;11497;52.222;21.246;2023-01-28T10:45:08;101251.28;;;2.00;93.76
22662;BME280;11497;52.222;21.246;2023-01-28T10:50:22;101247.66;;;1.89;95.35
22662;BME280;11497;52.222;21.246;2023-01-28T10:55:23;101244.31;;;1.96;94.73
22662;BME280;11497;52.222;21.246;2023-01-28T10:57:54;101244.28;;;1.93;95.07
22662;BME280;11497;52.222;21.246;2023-01-28T11:00:35;101243.56;;;2.02;94.11
22662;BME280;11497;52.222;21.246;2023-01-28T11:03:04;101238.25;;;1.94;93.77
22662;BME280;11497;52.222;21.246;2023-01-28T11:05:32;101238.97;;;1.84;94.24
22662;BME280;11497;52.222;21.246;2023-01-28T11:08:17;101234.53;;;1.75;95.13
22662;BME280;11497;52.222;21.246;2023-01-28T11:15:52;101232.22;;;1.92;95.42
22662;BME280;11497;52.222;21.246;2023-01-28T11:18:21;101228.88;;;1.99;95.70
22662;BME280;11497;52.222;21.246;2023-01-28T11:20:58;101227.00;;;1.89;95.35
22662;BME280;11497;52.222;21.246;2023-01-28T11:23:36;101216.53;;;1.80;95.52
22662;BME280;11497;52.222;21.246;2023-01-28T11:26:18;101216.81;;;1.98;95.44
22662;BME280;11497;52.222;21.246;2023-01-28T11:28:48;101223.47;;;1.84;95.82
22662;BME280;11497;52.222;21.246;2023-01-28T11:31:18;101228.63;;;1.82;96.09
22662;BME280;11497;52.222;21.246;2023-01-28T11:33:58;101218.47;;;1.93;96.33
22662;BME280;11497;52.222;21.246;2023-01-28T11:36:32;101228.22;;;2.12;95.76
22662;BME280;11497;52.222;21.246;2023-01-28T11:39:24;101222.13;;;2.07;94.81
22662;BME280;11497;52.222;21.246;2023-01-28T11:42:15;101218.50;;;1.96;93.89
22662;BME280;11497;52.222;21.246;2023-01-28T11:44:47;101216.06;;;2.05;93.38
22662;BME280;11497;52.222;21.246;2023-01-28T11:50:17;101214.16;;;1.92;93.85
22662;BME280;11497;52.222;21.246;2023-01-28T11:56:03;101218.66;;;2.05;93.30
22662;BME280;11497;52.222;21.246;2023-01-28T12:04:20;101214.00;;;1.83;93.66
22662;BME280;11497;52.222;21.246;2023-01-28T12:09:55;101212.34;;;1.86;93.89
22662;BME280;11497;52.222;21.246;2023-01-28T12:18:14;101208.81;;;1.81;93.75
22662;BME280;11497;52.222;21.246;2023-01-28T12:20:55;101213.00;;;1.75;94.47
22662;BME280;11497;52.222;21.246;2023-01-28T12:26:10;101209.91;;;1.97;94.34
22662;BME280;11497;52.222;21.246;2023-01-28T12:43:08;101203.97;;;2.03;93.50
22662;BME280;11497;52.222;21.246;2023-01-28T12:45:39;101200.19;;;1.79;93.51
22662;BME280;11497;52.222;21.246;2023-01-28T12:48:41;101198.59;;;1.89;93.97
22662;BME280;11497;52.222;21.246;2023-01-28T12:56:26;101205.56;;;1.93;93.08
22662;BME280;11497;52.222;21.246;2023-01-28T13:02:14;101209.63;;;1.79;93.59
22662;BME280;11497;52.222;21.246;2023-01-28T13:05:05;101223.81;;;2.05;93.40
22662;BME280;11497;52.222;21.246;2023-01-28T13:07:56;101215.81;;;1.88;93.47
22662;BME280;11497;52.222;21.246;2023-01-28T13:10:36;101211.47;;;1.86;93.85
22662;BME280;11497;52.222;21.246;2023-01-28T13:13:05;101207.88;;;1.76;94.02
22662;BME280;11497;52.222;21.246;2023-01-28T13:15:37;101209.41;;;1.63;94.00
22662;BME280;11497;52.222;21.246;2023-01-28T13:18:06;101211.25;;;1.71;94.63
22662;BME280;11497;52.222;21.246;2023-01-28T13:23:05;101200.94;;;1.72;95.17
22662;BME280;11497;52.222;21.246;2023-01-28T13:25:49;101207.81;;;1.72;94.34
22662;BME280;11497;52.222;21.246;2023-01-28T13:28:31;101209.69;;;1.82;94.31
22662;BME280;11497;52.222;21.246;2023-01-28T13:31:06;101206.69;;;2.10;93.64
22662;BME280;11497;52.222;21.246;2023-01-28T13:33:38;101211.06;;;1.60;93.75
22662;BME280;11497;52.222;21.246;2023-01-28T13:39:18;101223.88;;;1.54;94.44
22662;BME280;11497;52.222;21.246;2023-01-28T13:41:50;101217.72;;;1.47;94.74
22662;BME280;11497;52.222;21.246;2023-01-28T13:46:55;101221.25;;;1.52;95.37
22662;BME280;11497;52.222;21.246;2023-01-28T13:49:47;101221.47;;;1.64;95.53
22662;BME280;11497;52.222;21.246;2023-01-28T13:52:50;101219.53;;;1.51;95.44
22662;BME280;11497;52.222;21.246;2023-01-28T13:55:25;101228.19;;;1.55;95.39
22662;BME280;11497;52.222;21.246;2023-01-28T14:01:15;101225.31;;;1.38;95.97
22662;BME280;11497;52.222;21.246;2023-01-28T14:03:56;101227.88;;;1.38;96.31
22662;BME280;11497;52.222;21.246;2023-01-28T14:09:22;101210.88;;;1.49;96.52
22662;BME280;11497;52.222;21.246;2023-01-28T14:12:30;101216.56;;;1.28;96.29
22662;BME280;11497;52.222;21.246;2023-01-28T14:18:29;101212.34;;;1.35;96.52
22662;BME280;11497;52.222;21.246;2023-01-28T14:21:02;101217.47;;;1.32;96.39
22662;BME280;11497;52.222;21.246;2023-01-28T14:23:31;101210.47;;;1.78;96.06
22662;BME280;11497;52.222;21.246;2023-01-28T14:31:34;101216.63;;;1.33;95.61
22662;BME280;11497;52.222;21.246;2023-01-28T14:36:43;101218.34;;;1.34;96.05
22662;BME280;11497;52.222;21.246;2023-01-28T14:39:17;101220.75;;;1.22;96.39
22662;BME280;11497;52.222;21.246;2023-01-28T14:41:48;101219.13;;;1.27;96.47
22662;BME280;11497;52.222;21.246;2023-01-28T14:47:02;101226.09;;;1.34;96.44
22662;BME280;11497;52.222;21.246;2023-01-28T14:52:44;101227.69;;;1.26;96.26
22662;BME280;11497;52.222;21.246;2023-01-28T14:55:35;101227.72;;;1.27;96.30
22662;BME280;11497;52.222;21.246;2023-01-28T14:58:26;101224.03;;;1.13;96.42
22662;BME280;11497;52.222;21.246;2023-01-28T15:00:56;101219.72;;;1.14;96.87
22662;BME280;11497;52.222;21.246;2023-01-28T15:03:27;101220.19;;;1.40;96.80
22662;BME280;11497;52.222;21.246;2023-01-28T15:06:11;101217.38;;;1.26;96.20
22662;BME280;11497;52.222;21.246;2023-01-28T15:08:40;101225.91;;;1.22;96.19
22662;BME280;11497;52.222;21.246;2023-01-28T15:11:12;101224.28;;;1.27;96.28
22662;BME280;11497;52.222;21.246;2023-01-28T15:13:45;101225.94;;;1.23;96.57
22662;BME280;11497;52.222;21.246;2023-01-28T15:16:23;101235.19;;;1.14;96.56
22662;BME280;11497;52.222;21.246;2023-01-28T15:18:52;101232.75;;;1.20;96.75
22662;BME280;11497;52.222;21.246;2023-01-28T15:21:25;101231.81;;;1.16;96.62
22662;BME280;11497;52.222;21.246;2023-01-28T15:23:56;101235.97;;;1.10;96.50
22662;BME280;11497;52.222;21.246;2023-01-28T15:26:31;101235.97;;;1.10;96.71
22662;BME280;11497;52.222;21.246;2023-01-28T15:29:01;101238.31;;;0.97;97.25
22662;BME280;11497;52.222;21.246;2023-01-28T15:31:34;101240.97;;;1.00;97.29